sensor_id;sensor_type;location;lat;lon;timestamp;temperature;humidity
53520;DHT22;39397;53.204;5.778;2023-02-14T00:02:14;4.90;99.90
53520;DHT22;39397;53.204;5.778;2023-02-14T00:04:40;5.20;99.90
53520;DHT22;39397;53.204;5.778;2023-02-14T00:07:09;5.60;99.90
53520;DHT22;39397;53.204;5.778;2023-02-14T00:09:35;4.40;99.90
53520;DHT22;39397;53.204;5.778;2023-02-14T00:12:01;4.00;99.90
53520;DHT22;39397;53.204;5.778;2023-02-14T00:14:27;5.90;99.90
53520;DHT22;39397;53.204;5.778;2023-02-14T00:17:11;4.00;99.90
53520;DHT22;39397;53.204;5.778;2023-02-14T00:19:37;3.70;99.90
53520;DHT22;39397;53.204;5.778;2023-02-14T00:22:04;4.80;99.90
53520;DHT22;39397;53.204;5.778;2023-02-14T00:24:30;3.50;99.90
53520;DHT22;39397;53.204;5.778;2023-02-14T00:26:56;4.80;99.90
53520;DHT22;39397;53.204;5.778;2023-02-14T00:29:24;4.40;99.90
53520;DHT22;39397;53.204;5.778;2023-02-14T00:31:50;5.50;99.90
53520;DHT22;39397;53.204;5.778;2023-02-14T00:34:17;3.60;99.90
53520;DHT22;39397;53.204;5.778;2023-02-14T00:36:44;5.50;99.90
53520;DHT22;39397;53.204;5.778;2023-02-14T00:39:12;4.90;99.90
53520;DHT22;39397;53.204;5.778;2023-02-14T00:41:38;5.30;99.90
53520;DHT22;39397;53.204;5.778;2023-02-14T00:44:05;5.10;99.90
53520;DHT22;39397;53.204;5.778;2023-02-14T00:46:31;3.50;99.90
53520;DHT22;39397;53.204;5.778;2023-02-14T00:48:57;3.60;99.90
53520;DHT22;39397;53.204;5.778;2023-02-14T00:51:23;3.50;99.90
53520;DHT22;39397;53.204;5.778;2023-02-14T00:53:49;3.50;99.90
53520;DHT22;39397;53.204;5.778;2023-02-14T00:56:16;3.60;99.90
53520;DHT22;39397;53.204;5.778;2023-02-14T00:58:42;3.60;99.90
53520;DHT22;39397;53.204;5.778;2023-02-14T01:01:07;3.60;99.90
53520;DHT22;39397;53.204;5.778;2023-02-14T01:03:34;3.70;99.90
53520;DHT22;39397;53.204;5.778;2023-02-14T01:06:00;4.20;99.90
53520;DHT22;39397;53.204;5.778;2023-02-14T01:08:27;4.50;99.90
53520;DHT22;39397;53.204;5.778;2023-02-14T01:10:53;3.50;99.90
53520;DHT22;39397;53.204;5.778;2023-02-14T01:13:19;3.90;99.90
53520;DHT22;39397;53.204;5.778;2023-02-14T01:15:47;4.90;99.90
53520;DHT22;39397;53.204;5.778;2023-02-14T01:18:14;3.60;99.90
53520;DHT22;39397;53.204;5.778;2023-02-14T01:20:40;5.10;99.90
53520;DHT22;39397;53.204;5.778;2023-02-14T01:23:06;3.60;99.90
53520;DHT22;39397;53.204;5.778;2023-02-14T01:25:32;4.60;99.90
53520;DHT22;39397;53.204;5.778;2023-02-14T01:27:58;4.60;99.90
53520;DHT22;39397;53.204;5.778;2023-02-14T01:30:24;4.60;99.90
53520;DHT22;39397;53.204;5.778;2023-02-14T01:32:51;4.90;99.90
53520;DHT22;39397;53.204;5.778;2023-02-14T01:35:16;3.40;99.90
53520;DHT22;39397;53.204;5.778;2023-02-14T01:37:42;3.40;99.90
53520;DHT22;39397;53.204;5.778;2023-02-14T01:40:10;5.30;99.90
53520;DHT22;39397;53.204;5.778;2023-02-14T01:42:36;3.30;99.90
53520;DHT22;39397;53.204;5.778;2023-02-14T01:45:07;5.30;99.90
53520;DHT22;39397;53.204;5.778;2023-02-14T01:47:38;3.30;99.90
53520;DHT22;39397;53.204;5.778;2023-02-14T01:50:13;4.50;99.90
53520;DHT22;39397;53.204;5.778;2023-02-14T01:52:51;3.30;99.90
53520;DHT22;39397;53.204;5.778;2023-02-14T01:55:24;3.20;99.90
53520;DHT22;39397;53.204;5.778;2023-02-14T02:00:42;3.20;99.90
53520;DHT22;39397;53.204;5.778;2023-02-14T02:05:57;3.30;99.90
53520;DHT22;39397;53.204;5.778;2023-02-14T02:08:24;3.80;99.90
53520;DHT22;39397;53.204;5.778;2023-02-14T02:10:50;4.60;99.90
53520;DHT22;39397;53.204;5.778;2023-02-14T02:13:18;5.10;99.90
53520;DHT22;39397;53.204;5.778;2023-02-14T02:15:57;3.20;99.90
53520;DHT22;39397;53.204;5.778;2023-02-14T02:22:33;3.30;99.90
53520;DHT22;39397;53.204;5.778;2023-02-14T02:27:23;4.00;99.90
53520;DHT22;39397;53.204;5.778;2023-02-14T02:30:23;3.30;99.90
53520;DHT22;39397;53.204;5.778;2023-02-14T02:44:02;3.60;99.90
53520;DHT22;39397;53.204;5.778;2023-02-14T02:46:37;3.30;99.90
53520;DHT22;39397;53.204;5.778;2023-02-14T02:51:55;3.60;99.90
53520;DHT22;39397;53.204;5.778;2023-02-14T02:54:48;4.20;99.90
53520;DHT22;39397;53.204;5.778;2023-02-14T02:57:22;4.70;99.90
53520;DHT22;39397;53.204;5.778;2023-02-14T02:59:51;4.30;99.90
53520;DHT22;39397;53.204;5.778;2023-02-14T03:02:30;4.90;99.90
53520;DHT22;39397;53.204;5.778;2023-02-14T03:05:00;3.10;99.90
53520;DHT22;39397;53.204;5.778;2023-02-14T03:10:26;3.20;99.90
53520;DHT22;39397;53.204;5.778;2023-02-14T03:15:40;3.20;99.90
53520;DHT22;39397;53.204;5.778;2023-02-14T03:18:09;3.30;99.90
53520;DHT22;39397;53.204;5.778;2023-02-14T03:23:44;3.10;99.90
53520;DHT22;39397;53.204;5.778;2023-02-14T03:26:20;4.30;99.90
53520;DHT22;39397;53.204;5.778;2023-02-14T03:32:19;3.10;99.90
53520;DHT22;39397;53.204;5.778;2023-02-14T03:37:30;3.50;99.90
53520;DHT22;39397;53.204;5.778;2023-02-14T03:43:03;3.10;99.90
53520;DHT22;39397;53.204;5.778;2023-02-14T03:45:38;4.70;99.90
53520;DHT22;39397;53.204;5.778;2023-02-14T03:48:07;3.00;99.90
53520;DHT22;39397;53.204;5.778;2023-02-14T03:50:36;4.80;99.90
53520;DHT22;39397;53.204;5.778;2023-02-14T03:53:04;4.30;99.90
53520;DHT22;39397;53.204;5.778;2023-02-14T03:55:36;4.80;99.90
53520;DHT22;39397;53.204;5.778;2023-02-14T03:58:10;4.30;99.90
53520;DHT22;39397;53.204;5.778;2023-02-14T04:00:40;4.80;99.90
53520;DHT22;39397;53.204;5.778;2023-02-14T04:03:09;3.10;99.90
53520;DHT22;39397;53.204;5.778;2023-02-14T04:05:37;4.60;99.90
53520;DHT22;39397;53.204;5.778;2023-02-14T04:08:08;3.60;99.90
53520;DHT22;39397;53.204;5.778;2023-02-14T04:10:34;4.00;99.90
53520;DHT22;39397;53.204;5.778;2023-02-14T04:13:00;4.30;99.90
53520;DHT22;39397;53.204;5.778;2023-02-14T04:15:26;4.20;99.90
53520;DHT22;39397;53.204;5.778;2023-02-14T04:17:51;4.40;99.90
53520;DHT22;39397;53.204;5.778;2023-02-14T04:20:35;4.00;99.90
53520;DHT22;39397;53.204;5.778;2023-02-14T04:23:02;4.90;99.90
53520;DHT22;39397;53.204;5.778;2023-02-14T04:25:28;4.10;99.90
53520;DHT22;39397;53.204;5.778;2023-02-14T04:27:54;2.90;99.90
53520;DHT22;39397;53.204;5.778;2023-02-14T04:30:19;4.40;99.90
53520;DHT22;39397;53.204;5.778;2023-02-14T04:32:47;4.50;99.90
53520;DHT22;39397;53.204;5.778;2023-02-14T04:35:13;3.00;99.90
53520;DHT22;39397;53.204;5.778;2023-02-14T04:37:40;2.80;99.90
53520;DHT22;39397;53.204;5.778;2023-02-14T04:40:06;2.90;99.90
53520;DHT22;39397;53.204;5.778;2023-02-14T04:42:32;2.80;99.90
53520;DHT22;39397;53.204;5.778;2023-02-14T04:44:58;4.50;99.90
53520;DHT22;39397;53.204;5.778;2023-02-14T04:47:24;3.80;99.90
53520;DHT22;39397;53.204;5.778;2023-02-14T04:49:50;3.90;99.90
53520;DHT22;39397;53.204;5.778;2023-02-14T04:52:15;2.80;99.90
53520;DHT22;39397;53.204;5.778;2023-02-14T04:54:41;4.40;99.90
53520;DHT22;39397;53.204;5.778;2023-02-14T04:57:07;2.00;99.90
53520;DHT22;39397;53.204;5.778;2023-02-14T04:59:33;3.70;99.90
53520;DHT22;39397;53.204;5.778;2023-02-14T05:01:58;2.80;99.90
53520;DHT22;39397;53.204;5.778;2023-02-14T05:04:24;3.90;99.90
53520;DHT22;39397;53.204;5.778;2023-02-14T05:06:50;2.70;99.90
53520;DHT22;39397;53.204;5.778;2023-02-14T05:09:15;2.70;99.90
53520;DHT22;39397;53.204;5.778;2023-02-14T05:11:41;3.50;99.90
53520;DHT22;39397;53.204;5.778;2023-02-14T05:14:07;3.90;99.90
53520;DHT22;39397;53.204;5.778;2023-02-14T05:16:33;3.00;99.90
53520;DHT22;39397;53.204;5.778;2023-02-14T05:18:58;3.30;99.90
53520;DHT22;39397;53.204;5.778;2023-02-14T05:21:24;3.40;99.90
53520;DHT22;39397;53.204;5.778;2023-02-14T05:23:50;3.30;99.90
53520;DHT22;39397;53.204;5.778;2023-02-14T05:26:15;3.70;99.90
53520;DHT22;39397;53.204;5.778;2023-02-14T05:28:41;3.20;99.90
53520;DHT22;39397;53.204;5.778;2023-02-14T05:31:08;3.30;99.90
53520;DHT22;39397;53.204;5.778;2023-02-14T05:33:34;2.60;99.90
53520;DHT22;39397;53.204;5.778;2023-02-14T05:36:00;2.60;99.90
53520;DHT22;39397;53.204;5.778;2023-02-14T05:38:28;3.60;99.90
53520;DHT22;39397;53.204;5.778;2023-02-14T05:40:53;3.30;99.90
53520;DHT22;39397;53.204;5.778;2023-02-14T05:43:20;3.90;99.90
53520;DHT22;39397;53.204;5.778;2023-02-14T05:45:47;4.10;99.90
53520;DHT22;39397;53.204;5.778;2023-02-14T05:48:12;4.40;99.90
53520;DHT22;39397;53.204;5.778;2023-02-14T05:50:38;3.20;99.90
53520;DHT22;39397;53.204;5.778;2023-02-14T05:53:04;3.30;99.90
53520;DHT22;39397;53.204;5.778;2023-02-14T05:55:29;3.30;99.90
53520;DHT22;39397;53.204;5.778;2023-02-14T05:57:56;3.50;99.90
53520;DHT22;39397;53.204;5.778;2023-02-14T06:00:22;3.30;99.90
53520;DHT22;39397;53.204;5.778;2023-02-14T06:02:48;2.60;99.90
53520;DHT22;39397;53.204;5.778;2023-02-14T06:05:14;2.50;99.90
53520;DHT22;39397;53.204;5.778;2023-02-14T06:07:43;2.40;99.90
53520;DHT22;39397;53.204;5.778;2023-02-14T06:10:18;3.50;99.90
53520;DHT22;39397;53.204;5.778;2023-02-14T06:12:45;2.40;99.90
53520;DHT22;39397;53.204;5.778;2023-02-14T06:15:10;2.40;99.90
53520;DHT22;39397;53.204;5.778;2023-02-14T06:17:36;4.10;99.90
53520;DHT22;39397;53.204;5.778;2023-02-14T06:20:02;2.70;99.90
53520;DHT22;39397;53.204;5.778;2023-02-14T06:22:28;2.30;99.90
53520;DHT22;39397;53.204;5.778;2023-02-14T06:24:53;2.40;99.90
53520;DHT22;39397;53.204;5.778;2023-02-14T06:27:19;4.40;99.90
53520;DHT22;39397;53.204;5.778;2023-02-14T06:29:45;4.50;99.90
53520;DHT22;39397;53.204;5.778;2023-02-14T06:32:10;3.30;99.90
53520;DHT22;39397;53.204;5.778;2023-02-14T06:34:36;4.20;99.90
53520;DHT22;39397;53.204;5.778;2023-02-14T06:37:04;3.20;99.90
53520;DHT22;39397;53.204;5.778;2023-02-14T06:39:29;4.10;99.90
53520;DHT22;39397;53.204;5.778;2023-02-14T06:41:55;3.40;99.90
53520;DHT22;39397;53.204;5.778;2023-02-14T06:44:21;2.10;99.90
53520;DHT22;39397;53.204;5.778;2023-02-14T06:46:46;2.20;99.90
53520;DHT22;39397;53.204;5.778;2023-02-14T06:49:12;2.00;99.90
53520;DHT22;39397;53.204;5.778;2023-02-14T06:51:38;2.10;99.90
53520;DHT22;39397;53.204;5.778;2023-02-14T06:54:04;3.80;99.90
53520;DHT22;39397;53.204;5.778;2023-02-14T06:56:29;2.10;99.90
53520;DHT22;39397;53.204;5.778;2023-02-14T06:58:55;3.90;99.90
53520;DHT22;39397;53.204;5.778;2023-02-14T07:01:20;3.00;99.90
53520;DHT22;39397;53.204;5.778;2023-02-14T07:03:46;4.10;99.90
53520;DHT22;39397;53.204;5.778;2023-02-14T07:06:12;4.10;99.90
53520;DHT22;39397;53.204;5.778;2023-02-14T07:08:37;2.30;99.90
53520;DHT22;39397;53.204;5.778;2023-02-14T07:11:03;3.30;99.90
53520;DHT22;39397;53.204;5.778;2023-02-14T07:13:29;2.20;99.90
53520;DHT22;39397;53.204;5.778;2023-02-14T07:15:55;4.30;99.90
53520;DHT22;39397;53.204;5.778;2023-02-14T07:18:21;2.90;99.90
53520;DHT22;39397;53.204;5.778;2023-02-14T07:20:48;4.00;99.90
53520;DHT22;39397;53.204;5.778;2023-02-14T07:23:14;2.20;99.90
53520;DHT22;39397;53.204;5.778;2023-02-14T07:25:40;4.10;99.90
53520;DHT22;39397;53.204;5.778;2023-02-14T07:28:06;4.10;99.90
53520;DHT22;39397;53.204;5.778;2023-02-14T07:30:31;3.50;99.90
53520;DHT22;39397;53.204;5.778;2023-02-14T07:32:57;4.40;99.90
53520;DHT22;39397;53.204;5.778;2023-02-14T07:35:23;2.40;99.90
53520;DHT22;39397;53.204;5.778;2023-02-14T07:37:49;3.80;99.90
53520;DHT22;39397;53.204;5.778;2023-02-14T07:40:15;2.40;99.90
53520;DHT22;39397;53.204;5.778;2023-02-14T07:42:42;2.50;99.90
53520;DHT22;39397;53.204;5.778;2023-02-14T07:45:08;2.40;99.90
53520;DHT22;39397;53.204;5.778;2023-02-14T07:47:34;2.40;99.90
53520;DHT22;39397;53.204;5.778;2023-02-14T07:49:59;2.50;99.90
53520;DHT22;39397;53.204;5.778;2023-02-14T07:52:25;4.40;99.90
53520;DHT22;39397;53.204;5.778;2023-02-14T07:54:51;2.50;99.90
53520;DHT22;39397;53.204;5.778;2023-02-14T07:57:16;2.50;99.90
53520;DHT22;39397;53.204;5.778;2023-02-14T07:59:42;2.50;99.90
53520;DHT22;39397;53.204;5.778;2023-02-14T08:02:09;4.30;99.90
53520;DHT22;39397;53.204;5.778;2023-02-14T08:04:36;4.30;99.90
53520;DHT22;39397;53.204;5.778;2023-02-14T08:07:02;4.10;99.90
53520;DHT22;39397;53.204;5.778;2023-02-14T08:09:28;2.70;99.90
53520;DHT22;39397;53.204;5.778;2023-02-14T08:11:56;2.70;99.90
53520;DHT22;39397;53.204;5.778;2023-02-14T08:14:41;4.20;99.90
53520;DHT22;39397;53.204;5.778;2023-02-14T08:17:07;2.80;99.90
53520;DHT22;39397;53.204;5.778;2023-02-14T08:19:35;2.90;99.90
53520;DHT22;39397;53.204;5.778;2023-02-14T08:22:01;3.80;99.90
53520;DHT22;39397;53.204;5.778;2023-02-14T08:24:27;4.00;99.90
53520;DHT22;39397;53.204;5.778;2023-02-14T08:26:53;2.90;99.90
53520;DHT22;39397;53.204;5.778;2023-02-14T08:29:19;3.30;99.90
53520;DHT22;39397;53.204;5.778;2023-02-14T08:31:45;4.50;99.90
53520;DHT22;39397;53.204;5.778;2023-02-14T08:34:12;3.40;99.90
53520;DHT22;39397;53.204;5.778;2023-02-14T08:36:39;4.90;99.90
53520;DHT22;39397;53.204;5.778;2023-02-14T08:39:05;3.10;99.90
53520;DHT22;39397;53.204;5.778;2023-02-14T08:41:31;3.30;99.90
53520;DHT22;39397;53.204;5.778;2023-02-14T08:43:57;3.30;99.90
53520;DHT22;39397;53.204;5.778;2023-02-14T08:46:23;3.20;99.90
53520;DHT22;39397;53.204;5.778;2023-02-14T08:48:49;5.00;99.90
53520;DHT22;39397;53.204;5.778;2023-02-14T08:51:16;5.30;99.90
53520;DHT22;39397;53.204;5.778;2023-02-14T08:53:42;3.90;99.90
53520;DHT22;39397;53.204;5.778;2023-02-14T08:56:13;3.50;99.90
53520;DHT22;39397;53.204;5.778;2023-02-14T08:58:39;3.50;99.90
53520;DHT22;39397;53.204;5.778;2023-02-14T09:01:09;3.60;99.90
53520;DHT22;39397;53.204;5.778;2023-02-14T09:03:36;3.80;99.90
53520;DHT22;39397;53.204;5.778;2023-02-14T09:06:03;3.70;99.90
53520;DHT22;39397;53.204;5.778;2023-02-14T09:08:30;3.90;99.90
53520;DHT22;39397;53.204;5.778;2023-02-14T09:10:56;3.80;99.90
53520;DHT22;39397;53.204;5.778;2023-02-14T09:13:22;5.20;99.90
53520;DHT22;39397;53.204;5.778;2023-02-14T09:15:48;4.00;99.90
53520;DHT22;39397;53.204;5.778;2023-02-14T09:18:13;4.10;99.90
53520;DHT22;39397;53.204;5.778;2023-02-14T09:20:41;5.40;99.90
53520;DHT22;39397;53.204;5.778;2023-02-14T09:23:09;4.10;99.90
53520;DHT22;39397;53.204;5.778;2023-02-14T09:25:34;6.10;99.90
53520;DHT22;39397;53.204;5.778;2023-02-14T09:28:00;5.60;99.90
53520;DHT22;39397;53.204;5.778;2023-02-14T09:30:26;2.60;99.90
53520;DHT22;39397;53.204;5.778;2023-02-14T09:32:52;4.40;99.90
53520;DHT22;39397;53.204;5.778;2023-02-14T09:35:18;4.30;99.90
53520;DHT22;39397;53.204;5.778;2023-02-14T09:37:44;4.70;99.90
53520;DHT22;39397;53.204;5.778;2023-02-14T09:40:29;5.20;99.90
53520;DHT22;39397;53.204;5.778;2023-02-14T09:45:49;4.60;99.90
53520;DHT22;39397;53.204;5.778;2023-02-14T09:48:25;4.60;99.90
53520;DHT22;39397;53.204;5.778;2023-02-14T09:50:59;4.80;99.90
53520;DHT22;39397;53.204;5.778;2023-02-14T09:53:35;4.70;99.90
53520;DHT22;39397;53.204;5.778;2023-02-14T09:56:26;4.90;99.90
53520;DHT22;39397;53.204;5.778;2023-02-14T09:59:03;5.00;99.90
53520;DHT22;39397;53.204;5.778;2023-02-14T10:01:39;5.00;99.90
53520;DHT22;39397;53.204;5.778;2023-02-14T10:12:01;5.20;99.90
53520;DHT22;39397;53.204;5.778;2023-02-14T10:14:30;6.90;99.90
53520;DHT22;39397;53.204;5.778;2023-02-14T10:17:37;5.60;99.90
53520;DHT22;39397;53.204;5.778;2023-02-14T10:20:15;5.60;99.90
53520;DHT22;39397;53.204;5.778;2023-02-14T10:23:01;6.40;99.90
53520;DHT22;39397;53.204;5.778;2023-02-14T10:25:46;5.80;99.90
53520;DHT22;39397;53.204;5.778;2023-02-14T10:28:14;5.80;99.90
53520;DHT22;39397;53.204;5.778;2023-02-14T10:30:48;7.20;99.90
53520;DHT22;39397;53.204;5.778;2023-02-14T10:33:29;6.00;99.90
53520;DHT22;39397;53.204;5.778;2023-02-14T10:36:03;7.20;99.90
53520;DHT22;39397;53.204;5.778;2023-02-14T10:38:43;6.20;99.90
53520;DHT22;39397;53.204;5.778;2023-02-14T10:41:29;6.30;99.90
53520;DHT22;39397;53.204;5.778;2023-02-14T10:49:53;6.60;99.90
53520;DHT22;39397;53.204;5.778;2023-02-14T10:52:31;6.60;99.90
53520;DHT22;39397;53.204;5.778;2023-02-14T10:55:48;6.70;99.90
53520;DHT22;39397;53.204;5.778;2023-02-14T10:57:51;6.70;99.90
53520;DHT22;39397;53.204;5.778;2023-02-14T11:00:27;6.90;99.90
53520;DHT22;39397;53.204;5.778;2023-02-14T11:03:00;7.10;99.90
53520;DHT22;39397;53.204;5.778;2023-02-14T11:05:41;7.10;99.90
53520;DHT22;39397;53.204;5.778;2023-02-14T11:10:44;7.20;99.90
53520;DHT22;39397;53.204;5.778;2023-02-14T11:13:30;7.30;99.90
53520;DHT22;39397;53.204;5.778;2023-02-14T11:16:02;7.60;99.90
53520;DHT22;39397;53.204;5.778;2023-02-14T11:18:30;7.50;99.90
53520;DHT22;39397;53.204;5.778;2023-02-14T11:23:32;7.60;99.90
53520;DHT22;39397;53.204;5.778;2023-02-14T11:25:59;7.80;99.90
53520;DHT22;39397;53.204;5.778;2023-02-14T11:28:25;7.90;99.90
53520;DHT22;39397;53.204;5.778;2023-02-14T11:30:51;8.00;99.90
53520;DHT22;39397;53.204;5.778;2023-02-14T11:35:55;8.10;99.90
53520;DHT22;39397;53.204;5.778;2023-02-14T11:38:30;8.30;99.90
53520;DHT22;39397;53.204;5.778;2023-02-14T11:40:58;8.40;99.90
53520;DHT22;39397;53.204;5.778;2023-02-14T11:43:39;8.40;99.90
53520;DHT22;39397;53.204;5.778;2023-02-14T11:46:26;9.70;99.90
53520;DHT22;39397;53.204;5.778;2023-02-14T11:51:46;8.70;99.90
53520;DHT22;39397;53.204;5.778;2023-02-14T11:54:35;8.90;99.90
53520;DHT22;39397;53.204;5.778;2023-02-14T11:57:11;8.80;99.90
53520;DHT22;39397;53.204;5.778;2023-02-14T11:59:44;9.00;99.90
53520;DHT22;39397;53.204;5.778;2023-02-14T12:04:43;9.10;99.90
53520;DHT22;39397;53.204;5.778;2023-02-14T12:09:46;9.30;99.90
53520;DHT22;39397;53.204;5.778;2023-02-14T12:12:18;9.30;99.90
53520;DHT22;39397;53.204;5.778;2023-02-14T12:14:44;9.30;99.90
53520;DHT22;39397;53.204;5.778;2023-02-14T12:19:58;9.70;99.90
53520;DHT22;39397;53.204;5.778;2023-02-14T12:22:40;9.50;99.90
53520;DHT22;39397;53.204;5.778;2023-02-14T12:25:19;9.60;99.90
53520;DHT22;39397;53.204;5.778;2023-02-14T12:27:59;9.70;99.90
53520;DHT22;39397;53.204;5.778;2023-02-14T12:30:32;9.80;99.90
53520;DHT22;39397;53.204;5.778;2023-02-14T12:32:58;9.90;99.90
53520;DHT22;39397;53.204;5.778;2023-02-14T12:41:36;10.10;99.90
53520;DHT22;39397;53.204;5.778;2023-02-14T12:46:57;10.20;99.90
53520;DHT22;39397;53.204;5.778;2023-02-14T12:52:38;10.10;99.90
53520;DHT22;39397;53.204;5.778;2023-02-14T12:55:19;10.10;99.90
53520;DHT22;39397;53.204;5.778;2023-02-14T12:58:11;10.10;99.90
53520;DHT22;39397;53.204;5.778;2023-02-14T13:00:56;10.10;99.90
53520;DHT22;39397;53.204;5.778;2023-02-14T13:03:38;10.30;99.90
53520;DHT22;39397;53.204;5.778;2023-02-14T13:14:30;10.30;99.90
53520;DHT22;39397;53.204;5.778;2023-02-14T13:22:20;10.30;99.90
53520;DHT22;39397;53.204;5.778;2023-02-14T13:24:50;10.40;99.90
53520;DHT22;39397;53.204;5.778;2023-02-14T13:27:26;10.50;99.90
53520;DHT22;39397;53.204;5.778;2023-02-14T13:30:02;10.50;99.90
53520;DHT22;39397;53.204;5.778;2023-02-14T13:32:43;10.40;99.90
53520;DHT22;39397;53.204;5.778;2023-02-14T13:35:15;10.50;99.90
53520;DHT22;39397;53.204;5.778;2023-02-14T13:37:47;10.50;99.90
53520;DHT22;39397;53.204;5.778;2023-02-14T13:40:21;10.50;99.90
53520;DHT22;39397;53.204;5.778;2023-02-14T13:48:11;10.60;99.90
53520;DHT22;39397;53.204;5.778;2023-02-14T13:50:48;10.60;99.90
53520;DHT22;39397;53.204;5.778;2023-02-14T13:53:33;10.50;99.90
53520;DHT22;39397;53.204;5.778;2023-02-14T13:56:02;10.60;99.90
53520;DHT22;39397;53.204;5.778;2023-02-14T13:58:28;10.60;99.90
53520;DHT22;39397;53.204;5.778;2023-02-14T14:00:55;10.50;99.90
53520;DHT22;39397;53.204;5.778;2023-02-14T14:06:07;10.70;99.90
53520;DHT22;39397;53.204;5.778;2023-02-14T14:14:09;10.50;99.90
53520;DHT22;39397;53.204;5.778;2023-02-14T14:16:56;10.60;99.90
53520;DHT22;39397;53.204;5.778;2023-02-14T14:22:02;10.60;99.90
53520;DHT22;39397;53.204;5.778;2023-02-14T14:24:39;10.60;99.90
53520;DHT22;39397;53.204;5.778;2023-02-14T14:27:18;10.60;99.90
53520;DHT22;39397;53.204;5.778;2023-02-14T14:30:05;10.60;99.90
53520;DHT22;39397;53.204;5.778;2023-02-14T14:32:32;10.60;99.90
53520;DHT22;39397;53.204;5.778;2023-02-14T14:35:16;10.60;99.90
53520;DHT22;39397;53.204;5.778;2023-02-14T14:40:27;10.50;99.90
53520;DHT22;39397;53.204;5.778;2023-02-14T14:42:59;10.50;99.90
53520;DHT22;39397;53.204;5.778;2023-02-14T14:45:29;10.40;99.90
53520;DHT22;39397;53.204;5.778;2023-02-14T14:48:02;10.40;99.90
53520;DHT22;39397;53.204;5.778;2023-02-14T14:50:33;10.40;99.90
53520;DHT22;39397;53.204;5.778;2023-02-14T14:53:05;10.40;99.90
53520;DHT22;39397;53.204;5.778;2023-02-14T14:55:35;8.50;99.90
53520;DHT22;39397;53.204;5.778;2023-02-14T14:58:05;10.30;99.90
53520;DHT22;39397;53.204;5.778;2023-02-14T15:00:37;10.30;99.90
53520;DHT22;39397;53.204;5.778;2023-02-14T15:03:14;10.20;99.90
53520;DHT22;39397;53.204;5.778;2023-02-14T15:05:44;10.30;99.90
53520;DHT22;39397;53.204;5.778;2023-02-14T15:11:14;10.30;99.90
53520;DHT22;39397;53.204;5.778;2023-02-14T15:14:01;10.20;99.90
53520;DHT22;39397;53.204;5.778;2023-02-14T15:16:37;10.10;99.90
53520;DHT22;39397;53.204;5.778;2023-02-14T15:19:21;10.10;99.90
53520;DHT22;39397;53.204;5.778;2023-02-14T15:21:47;10.10;99.90
53520;DHT22;39397;53.204;5.778;2023-02-14T15:24:16;10.10;99.90
53520;DHT22;39397;53.204;5.778;2023-02-14T15:26:44;10.00;99.90
53520;DHT22;39397;53.204;5.778;2023-02-14T15:29:20;10.10;99.90
53520;DHT22;39397;53.204;5.778;2023-02-14T15:31:47;10.30;99.90
53520;DHT22;39397;53.204;5.778;2023-02-14T15:34:13;10.00;99.90
53520;DHT22;39397;53.204;5.778;2023-02-14T15:36:40;9.90;99.90
53520;DHT22;39397;53.204;5.778;2023-02-14T15:39:07;9.80;99.90
53520;DHT22;39397;53.204;5.778;2023-02-14T15:41:34;9.80;99.90
53520;DHT22;39397;53.204;5.778;2023-02-14T15:44:00;9.70;99.90
53520;DHT22;39397;53.204;5.778;2023-02-14T15:46:37;9.70;99.90
53520;DHT22;39397;53.204;5.778;2023-02-14T15:49:13;10.20;99.90
53520;DHT22;39397;53.204;5.778;2023-02-14T15:51:40;9.50;99.90
53520;DHT22;39397;53.204;5.778;2023-02-14T15:54:18;9.50;99.90
53520;DHT22;39397;53.204;5.778;2023-02-14T15:56:47;9.90;99.90
53520;DHT22;39397;53.204;5.778;2023-02-14T15:59:24;9.30;99.90
53520;DHT22;39397;53.204;5.778;2023-02-14T16:02:19;9.30;99.90
53520;DHT22;39397;53.204;5.778;2023-02-14T16:04:48;9.10;99.90
53520;DHT22;39397;53.204;5.778;2023-02-14T16:07:26;9.10;99.90
53520;DHT22;39397;53.204;5.778;2023-02-14T16:10:22;8.90;99.90
53520;DHT22;39397;53.204;5.778;2023-02-14T16:15:30;8.80;99.90
53520;DHT22;39397;53.204;5.778;2023-02-14T16:17:57;8.70;99.90
53520;DHT22;39397;53.204;5.778;2023-02-14T16:23:12;8.50;99.90
53520;DHT22;39397;53.204;5.778;2023-02-14T16:25:39;8.40;99.90
53520;DHT22;39397;53.204;5.778;2023-02-14T16:28:05;8.30;99.90
53520;DHT22;39397;53.204;5.778;2023-02-14T16:30:31;9.10;99.90
53520;DHT22;39397;53.204;5.778;2023-02-14T16:32:57;8.20;99.90
53520;DHT22;39397;53.204;5.778;2023-02-14T16:35:23;8.10;99.90
53520;DHT22;39397;53.204;5.778;2023-02-14T16:37:50;8.00;99.90
53520;DHT22;39397;53.204;5.778;2023-02-14T16:40:19;8.10;99.90
53520;DHT22;39397;53.204;5.778;2023-02-14T16:42:45;7.80;99.90
53520;DHT22;39397;53.204;5.778;2023-02-14T16:45:15;7.60;99.90
53520;DHT22;39397;53.204;5.778;2023-02-14T16:47:44;8.30;99.90
53520;DHT22;39397;53.204;5.778;2023-02-14T16:50:10;7.60;99.90
53520;DHT22;39397;53.204;5.778;2023-02-14T16:52:36;7.50;99.90
53520;DHT22;39397;53.204;5.778;2023-02-14T16:55:03;8.60;99.90
53520;DHT22;39397;53.204;5.778;2023-02-14T16:57:33;7.30;99.90
53520;DHT22;39397;53.204;5.778;2023-02-14T17:00:00;7.60;99.90
53520;DHT22;39397;53.204;5.778;2023-02-14T17:02:27;7.20;99.90
53520;DHT22;39397;53.204;5.778;2023-02-14T17:04:53;7.00;99.90
53520;DHT22;39397;53.204;5.778;2023-02-14T17:07:20;6.90;99.90
53520;DHT22;39397;53.204;5.778;2023-02-14T17:09:52;6.90;99.90
53520;DHT22;39397;53.204;5.778;2023-02-14T17:12:22;7.40;99.90
53520;DHT22;39397;53.204;5.778;2023-02-14T17:14:53;6.70;99.90
53520;DHT22;39397;53.204;5.778;2023-02-14T17:17:21;7.40;99.90
53520;DHT22;39397;53.204;5.778;2023-02-14T17:19:47;6.60;99.90
53520;DHT22;39397;53.204;5.778;2023-02-14T17:22:13;6.60;99.90
53520;DHT22;39397;53.204;5.778;2023-02-14T17:24:39;6.70;99.90
53520;DHT22;39397;53.204;5.778;2023-02-14T17:27:05;6.50;99.90
53520;DHT22;39397;53.204;5.778;2023-02-14T17:29:32;5.30;99.90
53520;DHT22;39397;53.204;5.778;2023-02-14T17:31:57;6.70;99.90
53520;DHT22;39397;53.204;5.778;2023-02-14T17:34:23;6.40;99.90
53520;DHT22;39397;53.204;5.778;2023-02-14T17:36:49;6.30;99.90
53520;DHT22;39397;53.204;5.778;2023-02-14T17:39:19;6.40;99.90
53520;DHT22;39397;53.204;5.778;2023-02-14T17:41:45;6.20;99.90
53520;DHT22;39397;53.204;5.778;2023-02-14T17:44:11;7.10;99.90
53520;DHT22;39397;53.204;5.778;2023-02-14T17:46:37;6.80;99.90
53520;DHT22;39397;53.204;5.778;2023-02-14T17:49:03;6.00;99.90
53520;DHT22;39397;53.204;5.778;2023-02-14T17:51:28;5.90;99.90
53520;DHT22;39397;53.204;5.778;2023-02-14T17:53:54;6.90;99.90
53520;DHT22;39397;53.204;5.778;2023-02-14T17:56:22;6.80;99.90
53520;DHT22;39397;53.204;5.778;2023-02-14T17:58:50;6.20;99.90
53520;DHT22;39397;53.204;5.778;2023-02-14T18:01:21;6.00;99.90
53520;DHT22;39397;53.204;5.778;2023-02-14T18:03:48;5.80;99.90
53520;DHT22;39397;53.204;5.778;2023-02-14T18:06:14;5.80;99.90
53520;DHT22;39397;53.204;5.778;2023-02-14T18:08:45;5.60;99.90
53520;DHT22;39397;53.204;5.778;2023-02-14T18:11:14;5.80;99.90
53520;DHT22;39397;53.204;5.778;2023-02-14T18:13:40;5.50;99.90